| time (UTC) | temp F | wind direction | speed knots | gust knots | rain 1hr in | rain 24hr in | rain mn in | humidity % | barometer mb |
| 20260502163602 | 46 | 82 | 1.7 | 6.1 | 0.00 | 0.00 | 0.00 | 55 | 1018.9 |
| 20260502162601 | 46 | 321 | 4.3 | 7.8 | 0.00 | 0.00 | 0.00 | 59 | 1018.8 |
| 20260502161601 | 45 | 328 | 2.6 | 8.7 | 0.00 | 0.00 | 0.00 | 56 | 1019.0 |
| 20260502160557 | 46 | 232 | 4.3 | 6.1 | 0.00 | 0.00 | 0.00 | 58 | 1019.1 |
| 20260502151524 | 44 | 247 | 3.5 | 5.2 | 0.00 | 0.00 | 0.00 | 58 | 1019.3 |
| 20260502150519 | 44 | 254 | 7.0 | 13.0 | 0.00 | 0.00 | 0.00 | 58 | 1019.1 |
| 20260502130457 | 40 | 317 | 2.6 | 7.0 | 0.00 | 0.00 | 0.00 | 78 | 1019.7 |
| 20260502123451 | 38 | 270 | 1.7 | 4.3 | 0.00 | 0.00 | 0.00 | 83 | 1020.0 |
| 20260502122450 | 37 | 331 | 0.0 | 4.3 | 0.00 | 0.00 | 0.00 | 84 | 1019.9 |
| 20260502121445 | 37 | 11 | 0.0 | 3.5 | 0.00 | 0.00 | 0.00 | 84 | 1020.0 |
| 20260502120444 | 36 | 4 | 1.7 | 4.3 | 0.00 | 0.00 | 0.00 | 84 | 1020.0 |
| 20260502115444 | 35 | 312 | 1.7 | 3.5 | 0.00 | 0.00 | 0.00 | 85 | 1019.7 |
| 20260502114443 | 35 | 357 | 1.7 | 5.2 | 0.00 | 0.00 | 0.00 | 85 | 1019.9 |
| 20260502113443 | 34 | 252 | 2.6 | 6.1 | 0.00 | 0.00 | 0.00 | 86 | 1019.8 |
| 20260502112439 | 34 | 285 | 0.9 | 2.6 | 0.00 | 0.00 | 0.00 | 86 | 1019.7 |
| 20260502111439 | 33 | 255 | 0.0 | 2.6 | 0.00 | 0.00 | 0.00 | 87 | 1019.6 |
| 20260502110434 | 32 | 283 | 0.9 | 1.7 | 0.00 | 0.00 | 0.00 | 89 | 1019.7 |
| 20260502105434 | 32 | 350 | 0.0 | 1.7 | 0.00 | 0.00 | 0.00 | 90 | 1019.4 |
| 20260502104429 | 31 | 280 | 0.0 | 3.5 | 0.00 | 0.00 | 0.00 | 91 | 1019.4 |
| 20260502103424 | 30 | 278 | 0.0 | 0.0 | 0.00 | 0.00 | 0.00 | 92 | 1019.2 |
| 20260502102423 | 30 | 23 | 0.0 | 0.0 | 0.00 | 0.00 | 0.00 | 92 | 1019.4 |
| 20260502101419 | 30 | 276 | 0.0 | 0.0 | 0.00 | 0.00 | 0.00 | 92 | 1019.3 |
| 20260502100416 | 30 | 194 | 0.0 | 0.0 | 0.00 | 0.00 | 0.00 | 92 | 1019.4 |
| 20260502091401 | 32 | 246 | 0.0 | 1.7 | 0.00 | 0.00 | 0.00 | 88 | 1019.2 |
| 20260502090401 | 32 | 270 | 0.0 | 0.0 | 0.00 | 0.00 | 0.00 | 87 | 1019.3 |
| 20260502071336 | 36 | 0 | 0.0 | 0.9 | 0.00 | 0.00 | 0.00 | 79 | 1019.0 |
| 20260502070332 | 36 | 262 | 0.0 | 0.9 | 0.00 | 0.00 | 0.00 | 78 | 1018.8 |
| 20260502065329 | 37 | 0 | 0.0 | 0.0 | 0.00 | 0.00 | 0.00 | 77 | 1019.0 |
| 20260502064324 | 37 | 345 | 1.7 | 1.7 | 0.00 | 0.00 | 0.00 | 77 | 1019.0 |
| 20260502063319 | 37 | 277 | 0.0 | 1.7 | 0.00 | 0.00 | 0.00 | 76 | 1019.2 |
| 20260502062319 | 37 | 306 | 0.0 | 2.6 | 0.00 | 0.00 | 0.00 | 75 | 1019.2 |
| 20260502061315 | 38 | 285 | 0.9 | 2.6 | 0.00 | 0.00 | 0.00 | 75 | 1019.1 |
| 20260502060312 | 38 | 257 | 1.7 | 5.2 | 0.00 | 0.00 | 0.00 | 73 | 1018.9 |
| 20260502055308 | 39 | 246 | 0.9 | 4.3 | 0.00 | 0.00 | 0.00 | 72 | 1019.2 |
| 20260502054304 | 39 | 270 | 0.9 | 1.7 | 0.00 | 0.00 | 0.00 | 70 | 1018.8 |
| 20260502053304 | 39 | 315 | 1.7 | 3.5 | 0.00 | 0.00 | 0.00 | 68 | 1018.7 |
| 20260502052300 | 39 | 307 | 1.7 | 3.5 | 0.00 | 0.00 | 0.00 | 68 | 1019.0 |
| 20260502051256 | 40 | 0 | 0.0 | 4.3 | 0.00 | 0.00 | 0.00 | 67 | 1018.9 |
| 20260502050254 | 40 | 0 | 1.7 | 2.6 | 0.00 | 0.00 | 0.00 | 66 | 1018.8 |
| 20260502045254 | 40 | 340 | 2.6 | 3.5 | 0.00 | 0.00 | 0.00 | 65 | 1018.5 |
| 20260502044253 | 40 | 348 | 1.7 | 2.6 | 0.00 | 0.00 | 0.00 | 65 | 1018.7 |
| 20260502043248 | 40 | 0 | 0.0 | 3.5 | 0.00 | 0.00 | 0.00 | 66 | 1018.7 |
| 20260502042245 | 40 | 3 | 0.0 | 4.3 | 0.00 | 0.00 | 0.00 | 65 | 1018.6 |
| 20260502041240 | 40 | 0 | 0.9 | 2.6 | 0.00 | 0.00 | 0.00 | 66 | 1018.4 |
| 20260502040239 | 40 | 346 | 0.0 | 1.7 | 0.00 | 0.00 | 0.00 | 65 | 1018.5 |
| 20260502035238 | 40 | 356 | 1.7 | 3.5 | 0.00 | 0.00 | 0.00 | 65 | 1018.6 |
| 20260502034233 | 40 | 289 | 1.7 | 2.6 | 0.00 | 0.00 | 0.00 | 65 | 1018.4 |
| 20260502033229 | 40 | 5 | 1.7 | 2.6 | 0.00 | 0.00 | 0.00 | 65 | 1018.4 |
| 20260502032227 | 41 | 336 | 3.5 | 3.5 | 0.00 | 0.00 | 0.00 | 64 | 1018.3 |
| 20260502031223 | 41 | 0 | 1.7 | 3.5 | 0.00 | 0.00 | 0.00 | 63 | 1018.3 |
| 20260502030219 | 41 | 357 | 1.7 | 5.2 | 0.00 | 0.00 | 0.00 | 63 | 1018.2 |
| 20260502025219 | 41 | 356 | 3.5 | 4.3 | 0.00 | 0.00 | 0.00 | 62 | 1018.4 |
| 20260502024215 | 41 | 1 | 4.3 | 4.3 | 0.00 | 0.00 | 0.00 | 65 | 1018.4 |
| 20260502023215 | 41 | 251 | 0.0 | 0.9 | 0.00 | 0.00 | 0.00 | 66 | 1017.9 |
| 20260502022215 | 41 | 324 | 1.7 | 1.7 | 0.00 | 0.00 | 0.00 | 64 | 1018.1 |
| 20260502021210 | 41 | 325 | 0.9 | 2.6 | 0.00 | 0.00 | 0.00 | 64 | 1018.1 |
| 20260502020210 | 41 | 0 | 0.9 | 2.6 | 0.00 | 0.00 | 0.00 | 64 | 1018.0 |
| 20260502015209 | 42 | 2 | 2.6 | 2.6 | 0.00 | 0.00 | 0.00 | 62 | 1018.1 |
| 20260502014204 | 42 | 346 | 0.9 | 2.6 | 0.00 | 0.00 | 0.00 | 62 | 1018.0 |
| 20260502013201 | 42 | 348 | 1.7 | 2.6 | 0.00 | 0.00 | 0.00 | 62 | 1017.9 |
| 20260502012157 | 42 | 0 | 0.9 | 2.6 | 0.00 | 0.00 | 0.00 | 62 | 1017.6 |
| 20260502011155 | 42 | 315 | 3.5 | 3.5 | 0.00 | 0.00 | 0.00 | 61 | 1017.7 |
| 20260502010154 | 42 | 270 | 0.9 | 3.5 | 0.00 | 0.00 | 0.00 | 61 | 1017.6 |
| 20260502005150 | 42 | 342 | 0.0 | 4.3 | 0.00 | 0.00 | 0.00 | 61 | 1017.5 |
| 20260502004148 | 42 | 0 | 2.6 | 6.1 | 0.00 | 0.00 | 0.00 | 60 | 1017.5 |
| 20260502003143 | 43 | 339 | 2.6 | 5.2 | 0.00 | 0.00 | 0.00 | 60 | 1017.3 |
| 20260502002143 | 43 | 334 | 3.5 | 4.3 | 0.00 | 0.00 | 0.00 | 61 | 1017.5 |
| 20260502001143 | 43 | 331 | 2.6 | 8.7 | 0.00 | 0.00 | 0.00 | 59 | 1017.3 |
| 20260502000139 | 43 | 14 | 1.7 | 5.2 | 0.00 | 0.00 | 0.00 | 60 | 1017.2 |
| 20260501235136 | 43 | 293 | 2.6 | 3.5 | 0.00 | 0.00 | 0.00 | 59 | 1017.1 |
| 20260501234135 | 43 | 346 | 0.9 | 3.5 | 0.00 | 0.00 | 0.00 | 60 | 1016.8 |
| 20260501233130 | 44 | 19 | 3.5 | 7.8 | 0.00 | 0.00 | 0.00 | 60 | 1016.8 |
| 20260501232129 | 44 | 0 | 1.7 | 4.3 | 0.00 | 0.00 | 0.00 | 60 | 1016.9 |
| 20260501231125 | 44 | 320 | 2.6 | 6.1 | 0.00 | 0.00 | 0.00 | 61 | 1016.8 |
| 20260501230121 | 44 | 0 | 1.7 | 6.1 | 0.00 | 0.00 | 0.00 | 59 | 1016.8 |
| 20260501225120 | 45 | 0 | 2.6 | 3.5 | 0.00 | 0.00 | 0.00 | 58 | 1016.8 |
| 20260501224120 | 45 | 345 | 2.6 | 5.2 | 0.00 | 0.00 | 0.00 | 57 | 1016.6 |
| 20260501223119 | 45 | 14 | 6.1 | 8.7 | 0.00 | 0.00 | 0.00 | 57 | 1016.6 |
| 20260501222118 | 46 | 341 | 5.2 | 5.2 | 0.00 | 0.00 | 0.00 | 56 | 1016.5 |
| 20260501221118 | 46 | 337 | 3.5 | 7.8 | 0.00 | 0.00 | 0.00 | 55 | 1016.2 |
| 20260501220119 | 46 | 330 | 1.7 | 3.5 | 0.00 | 0.00 | 0.00 | 57 | 1016.3 |
| 20260501215116 | 46 | 282 | 0.9 | 7.0 | 0.00 | 0.00 | 0.00 | 57 | 1016.3 |
| 20260501214113 | 46 | 337 | 7.0 | 7.8 | 0.00 | 0.00 | 0.00 | 55 | 1016.2 |
| 20260501213112 | 46 | 335 | 3.5 | 7.8 | 0.00 | 0.00 | 0.00 | 55 | 1016.2 |
| 20260501212111 | 46 | 339 | 7.0 | 7.0 | 0.00 | 0.00 | 0.00 | 54 | 1016.0 |
| 20260501211111 | 46 | 352 | 2.6 | 5.2 | 0.00 | 0.00 | 0.00 | 56 | 1016.1 |
| 20260501210110 | 47 | 180 | 1.7 | 7.0 | 0.00 | 0.00 | 0.00 | 56 | 1015.7 |
| 20260501205110 | 46 | 353 | 0.0 | 5.2 | 0.00 | 0.00 | 0.00 | 54 | 1016.0 |
| 20260501204109 | 46 | 330 | 2.6 | 6.1 | 0.00 | 0.00 | 0.00 | 56 | 1015.9 |
| 20260501203103 | 47 | 270 | 2.6 | 6.1 | 0.00 | 0.00 | 0.00 | 57 | 1015.9 |
| 20260501202102 | 48 | 237 | 5.2 | 7.0 | 0.00 | 0.00 | 0.00 | 57 | 1015.8 |
| 20260501201101 | 47 | 287 | 1.7 | 3.5 | 0.00 | 0.00 | 0.00 | 54 | 1015.8 |
| 20260501200056 | 48 | 317 | 4.3 | 4.3 | 0.00 | 0.00 | 0.00 | 57 | 1015.8 |
| 20260501195055 | 46 | 252 | 2.6 | 4.3 | 0.00 | 0.00 | 0.00 | 56 | 1015.9 |
| 20260501194052 | 46 | 246 | 2.6 | 4.3 | 0.00 | 0.00 | 0.00 | 60 | 1015.7 |
| 20260501193049 | 46 | 310 | 1.7 | 6.1 | 0.00 | 0.00 | 0.00 | 59 | 1015.8 |
| 20260501192049 | 46 | 262 | 2.6 | 6.1 | 0.00 | 0.00 | 0.00 | 57 | 1015.9 |
| 20260501191048 | 46 | 285 | 3.5 | 6.1 | 0.00 | 0.00 | 0.00 | 59 | 1015.7 |
| 20260501190045 | 48 | 322 | 4.3 | 7.0 | 0.00 | 0.00 | 0.00 | 62 | 1015.8 |
| 20260501185043 | 48 | 292 | 3.5 | 8.7 | 0.00 | 0.00 | 0.00 | 59 | 1015.7 |
| 20260501184039 | 46 | 353 | 1.7 | 3.5 | 0.00 | 0.00 | 0.00 | 59 | 1015.7 |
| 20260501183039 | 46 | 148 | 1.7 | 3.5 | 0.00 | 0.00 | 0.00 | 59 | 1015.4 |
| 20260501182039 | 46 | 90 | 1.7 | 4.3 | 0.00 | 0.00 | 0.00 | 60 | 1015.8 |
| 20260501181038 | 46 | 282 | 2.6 | 4.3 | 0.00 | 0.00 | 0.00 | 62 | 1015.5 |
| 20260501180038 | 46 | 311 | 2.6 | 3.5 | 0.00 | 0.00 | 0.00 | 62 | 1015.4 |
| 20260501175037 | 46 | 327 | 1.7 | 3.5 | 0.00 | 0.00 | 0.00 | 64 | 1015.7 |
| 20260501174032 | 45 | 247 | 4.3 | 5.2 | 0.00 | 0.00 | 0.00 | 62 | 1015.9 |
| 20260501173032 | 46 | 253 | 2.6 | 3.5 | 0.00 | 0.00 | 0.00 | 62 | 1015.9 |